createdAt,value
2023-03-07T00:01:59.920Z,12.73
2023-03-07T00:04:26.442Z,11.53
2023-03-07T00:06:56.998Z,13.43
2023-03-07T00:09:24.652Z,14.10
2023-03-07T00:11:51.196Z,15.77
2023-03-07T00:14:19.090Z,15.57
2023-03-07T00:16:51.466Z,21.80
2023-03-07T00:19:19.001Z,16.27
2023-03-07T00:21:46.088Z,17.47
2023-03-07T00:24:12.625Z,19.27
2023-03-07T00:26:39.823Z,18.03
2023-03-07T00:29:08.340Z,20.87
2023-03-07T00:31:35.740Z,22.27
2023-03-07T00:34:03.145Z,19.30
2023-03-07T00:36:30.136Z,25.03
2023-03-07T00:38:56.959Z,25.53
2023-03-07T00:41:25.413Z,24.27
2023-03-07T00:43:52.938Z,27.43
2023-03-07T00:46:20.737Z,24.43
2023-03-07T00:48:48.130Z,25.97
2023-03-07T00:51:16.066Z,27.87
2023-03-07T00:53:43.360Z,28.33
2023-03-07T00:56:14.085Z,26.67
2023-03-07T00:58:40.596Z,32.77
2023-03-07T01:01:08.105Z,28.77
2023-03-07T01:03:35.034Z,27.13
2023-03-07T01:06:06.523Z,26.53
2023-03-07T01:08:33.747Z,31.47
2023-03-07T01:11:05.873Z,30.00
2023-03-07T01:13:33.267Z,26.73
2023-03-07T01:16:19.850Z,26.57
2023-03-07T01:18:49.981Z,26.53
2023-03-07T01:21:19.836Z,27.07
2023-03-07T01:23:46.688Z,25.57
2023-03-07T01:26:16.113Z,29.57
2023-03-07T01:28:42.928Z,34.87
2023-03-07T01:31:09.885Z,28.63
2023-03-07T01:33:36.762Z,29.87
2023-03-07T01:36:04.003Z,30.40
2023-03-07T01:38:34.056Z,29.10
2023-03-07T01:41:02.133Z,27.37
2023-03-07T01:43:34.007Z,28.50
2023-03-07T01:46:18.979Z,31.37
2023-03-07T01:48:51.308Z,33.67
2023-03-07T01:51:18.403Z,32.70
2023-03-07T01:53:45.972Z,31.07
2023-03-07T01:56:12.566Z,32.60
2023-03-07T01:58:39.604Z,35.43
2023-03-07T02:01:08.988Z,36.77
2023-03-07T02:03:54.162Z,36.33
2023-03-07T02:06:20.881Z,36.53
2023-03-07T02:08:49.410Z,45.23
2023-03-07T02:11:16.568Z,41.50
2023-03-07T02:13:43.145Z,40.40
2023-03-07T02:16:09.769Z,38.63
2023-03-07T02:18:43.142Z,47.53
2023-03-07T02:21:25.566Z,39.33
2023-03-07T02:24:12.263Z,45.33
2023-03-07T02:26:49.766Z,44.40
2023-03-07T02:29:16.500Z,46.93
2023-03-07T02:31:42.975Z,42.87
2023-03-07T02:34:25.649Z,45.23
2023-03-07T02:36:56.573Z,46.73
2023-03-07T02:39:24.682Z,42.30
2023-03-07T02:41:53.313Z,43.63
2023-03-07T02:44:19.802Z,43.37
2023-03-07T02:46:46.541Z,49.33
2023-03-07T02:49:13.116Z,40.07
2023-03-07T02:51:40.059Z,43.40
2023-03-07T02:54:06.778Z,43.70
2023-03-07T02:56:33.252Z,43.40
2023-03-07T02:58:59.702Z,41.70
2023-03-07T03:01:26.309Z,35.30
2023-03-07T03:03:52.837Z,38.57
2023-03-07T03:06:19.303Z,35.50
2023-03-07T03:08:45.812Z,36.83
2023-03-07T03:11:12.268Z,37.57
2023-03-07T03:13:39.154Z,33.73
2023-03-07T03:16:05.950Z,28.83
2023-03-07T03:18:32.517Z,32.80
2023-03-07T03:20:59.235Z,35.67
2023-03-07T03:23:28.887Z,25.13
2023-03-07T03:26:00.299Z,26.00
2023-03-07T03:28:26.853Z,32.93
2023-03-07T03:31:05.774Z,25.83
2023-03-07T03:33:32.541Z,20.53
2023-03-07T03:36:01.795Z,26.40
2023-03-07T03:38:28.269Z,22.87
2023-03-07T03:40:54.720Z,23.77
2023-03-07T03:43:21.164Z,24.90
2023-03-07T03:45:57.690Z,26.97
2023-03-07T03:48:25.100Z,22.27
2023-03-07T03:50:51.583Z,23.13
2023-03-07T03:53:18.055Z,21.47
2023-03-07T03:55:44.538Z,22.27
2023-03-07T03:58:11.208Z,25.00
2023-03-07T04:00:37.710Z,19.07
2023-03-07T04:03:04.736Z,22.13
2023-03-07T04:05:33.673Z,18.37
2023-03-07T04:08:00.665Z,17.53
2023-03-07T04:10:27.113Z,15.93
2023-03-07T04:12:53.568Z,17.97
2023-03-07T04:15:20.024Z,23.03
2023-03-07T04:17:46.584Z,18.53
2023-03-07T04:20:17.447Z,18.90
2023-03-07T04:22:44.246Z,21.30
2023-03-07T04:25:10.832Z,19.97
2023-03-07T04:27:37.274Z,17.63
2023-03-07T04:30:04.058Z,16.23
2023-03-07T04:32:30.664Z,17.03
2023-03-07T04:34:57.155Z,17.27
2023-03-07T04:37:23.677Z,15.13
2023-03-07T04:39:50.112Z,19.23
2023-03-07T04:42:16.559Z,20.70
2023-03-07T04:44:43.005Z,14.47
2023-03-07T04:47:09.468Z,14.90
2023-03-07T04:49:36.044Z,16.87
2023-03-07T04:52:02.732Z,18.03
2023-03-07T04:54:29.169Z,12.57
2023-03-07T04:56:55.625Z,13.53
2023-03-07T04:59:22.065Z,11.63
2023-03-07T05:01:48.519Z,13.67
2023-03-07T05:04:14.975Z,12.67
2023-03-07T05:06:41.481Z,10.47
2023-03-07T05:09:08.027Z,14.33
2023-03-07T05:11:34.497Z,10.53
2023-03-07T05:14:00.941Z,11.83
2023-03-07T05:16:27.408Z,9.27
2023-03-07T05:18:53.837Z,11.73
2023-03-07T05:21:20.306Z,8.87
2023-03-07T05:23:47.400Z,11.07
2023-03-07T05:26:13.904Z,9.77
2023-03-07T05:28:40.339Z,8.60
2023-03-07T05:31:06.892Z,12.70
2023-03-07T05:33:33.406Z,12.50
2023-03-07T05:36:01.153Z,5.77
2023-03-07T05:38:28.009Z,11.53
2023-03-07T05:40:54.445Z,9.63
2023-03-07T05:43:20.931Z,8.23
2023-03-07T05:45:47.363Z,13.53
2023-03-07T05:48:13.827Z,10.60
2023-03-07T05:50:41.998Z,7.83
2023-03-07T05:53:08.871Z,7.97
2023-03-07T05:55:35.420Z,6.83
2023-03-07T05:58:01.964Z,11.33
2023-03-07T06:00:28.454Z,7.00
2023-03-07T06:02:55.050Z,9.60
2023-03-07T06:05:22.532Z,8.17
2023-03-07T06:07:50.374Z,7.70
2023-03-07T06:10:17.158Z,8.33
2023-03-07T06:12:43.628Z,12.13
2023-03-07T06:15:10.407Z,8.80
2023-03-07T06:17:37.800Z,8.33
2023-03-07T06:20:04.882Z,8.00
2023-03-07T06:22:32.159Z,9.20
2023-03-07T06:24:58.597Z,9.60
2023-03-07T06:27:25.259Z,7.83
2023-03-07T06:29:51.697Z,7.07
2023-03-07T06:32:18.200Z,13.23
2023-03-07T06:34:44.674Z,10.50
2023-03-07T06:37:11.133Z,4.47
2023-03-07T06:39:37.648Z,9.23
2023-03-07T06:42:04.293Z,7.13
2023-03-07T06:44:30.860Z,12.23
2023-03-07T06:46:57.323Z,13.03
2023-03-07T06:49:23.919Z,9.47
2023-03-07T06:51:50.439Z,9.47
2023-03-07T06:54:16.930Z,8.77
2023-03-07T06:56:45.390Z,7.60
2023-03-07T06:59:12.089Z,10.63
2023-03-07T07:01:38.723Z,12.07
2023-03-07T07:04:05.462Z,8.40
2023-03-07T07:06:31.944Z,14.43
2023-03-07T07:08:59.171Z,13.57
2023-03-07T07:11:26.449Z,10.60
2023-03-07T07:13:52.943Z,18.60
2023-03-07T07:16:19.781Z,12.93
2023-03-07T07:18:46.482Z,11.23
2023-03-07T07:21:12.995Z,10.07
2023-03-07T07:23:39.841Z,13.93
2023-03-07T07:26:06.639Z,15.97
2023-03-07T07:28:33.404Z,18.83
2023-03-07T07:31:00.168Z,9.53
2023-03-07T07:33:26.679Z,16.70
2023-03-07T07:35:53.195Z,10.87
2023-03-07T07:38:19.746Z,13.63
2023-03-07T07:40:46.211Z,15.13
2023-03-07T07:43:17.152Z,16.20
2023-03-07T07:45:43.893Z,12.10
2023-03-07T07:48:10.384Z,10.93
2023-03-07T07:50:36.923Z,12.30
2023-03-07T07:53:04.007Z,14.53
2023-03-07T07:55:30.714Z,9.53
2023-03-07T07:57:57.195Z,10.50
2023-03-07T08:00:23.891Z,10.53
2023-03-07T08:02:50.956Z,7.73
2023-03-07T08:05:21.141Z,5.70
2023-03-07T08:07:48.164Z,8.47
2023-03-07T08:10:16.030Z,6.37
2023-03-07T08:12:48.570Z,5.10
2023-03-07T08:15:17.068Z,5.60
2023-03-07T08:17:44.563Z,13.10
2023-03-07T08:20:11.329Z,6.70
2023-03-07T08:22:38.411Z,8.80
2023-03-07T08:25:05.968Z,10.73
2023-03-07T08:27:32.728Z,10.20
2023-03-07T08:29:59.998Z,8.07
2023-03-07T08:32:27.369Z,6.00
2023-03-07T08:34:53.899Z,7.90
2023-03-07T08:37:20.409Z,8.83
2023-03-07T08:39:47.643Z,10.70
2023-03-07T08:42:14.296Z,14.03
2023-03-07T08:44:40.919Z,8.50
2023-03-07T08:47:07.493Z,7.30
2023-03-07T08:49:34.100Z,10.87
2023-03-07T08:52:00.603Z,10.33
2023-03-07T08:54:27.984Z,6.40
2023-03-07T08:56:54.459Z,8.33
2023-03-07T08:59:20.911Z,6.83
2023-03-07T09:01:47.379Z,9.20
2023-03-07T09:04:13.865Z,6.33
2023-03-07T09:06:40.290Z,6.17
2023-03-07T09:09:06.742Z,6.80
2023-03-07T09:11:33.185Z,5.53
2023-03-07T09:13:59.733Z,8.80
2023-03-07T09:16:26.289Z,5.03
2023-03-07T09:18:53.014Z,5.83
2023-03-07T09:21:19.617Z,6.53
2023-03-07T09:23:46.085Z,12.37
2023-03-07T09:26:13.142Z,6.73
2023-03-07T09:28:39.652Z,5.70
2023-03-07T09:31:10.820Z,6.57
2023-03-07T09:33:37.688Z,5.27
2023-03-07T09:36:06.237Z,5.33
2023-03-07T09:38:33.006Z,3.60
2023-03-07T09:41:16.216Z,5.23
2023-03-07T09:44:00.847Z,5.70
2023-03-07T09:46:51.619Z,4.47
2023-03-07T09:49:26.180Z,5.47
2023-03-07T09:51:54.026Z,7.80
2023-03-07T09:54:22.922Z,7.67
2023-03-07T09:56:58.170Z,10.33
2023-03-07T09:59:36.963Z,6.00
2023-03-07T10:02:26.589Z,7.80
2023-03-07T10:04:58.431Z,7.30
2023-03-07T10:07:26.191Z,5.53
2023-03-07T10:09:56.911Z,4.50
2023-03-07T10:12:30.779Z,7.10
2023-03-07T10:15:30.621Z,7.93
2023-03-07T10:18:09.930Z,9.20
2023-03-07T10:20:40.295Z,8.67
2023-03-07T10:23:25.687Z,7.53
2023-03-07T10:26:10.662Z,7.03
2023-03-07T10:28:42.257Z,12.30
2023-03-07T10:31:24.240Z,11.43
2023-03-07T10:33:52.100Z,6.53
2023-03-07T10:36:38.688Z,8.57
2023-03-07T10:39:19.527Z,6.50
2023-03-07T10:41:46.059Z,11.63
2023-03-07T10:44:17.674Z,11.27
2023-03-07T10:46:55.466Z,9.03
2023-03-07T10:49:34.753Z,9.60
2023-03-07T10:52:26.614Z,8.90
2023-03-07T10:54:53.063Z,13.47
2023-03-07T10:57:26.647Z,5.57
2023-03-07T10:59:53.212Z,9.63
2023-03-07T11:02:31.794Z,10.70
2023-03-07T11:04:59.006Z,6.07
2023-03-07T11:07:29.444Z,7.40
2023-03-07T11:09:57.757Z,7.73
2023-03-07T11:12:26.152Z,8.57
2023-03-07T11:14:52.634Z,6.33
2023-03-07T11:17:23.144Z,4.27
2023-03-07T11:19:57.867Z,2.37
2023-03-07T11:22:28.494Z,5.10
2023-03-07T11:25:10.259Z,5.47
2023-03-07T11:27:50.294Z,4.33
2023-03-07T11:30:18.120Z,3.70
2023-03-07T11:33:08.139Z,5.67
2023-03-07T11:35:46.831Z,5.83
2023-03-07T11:38:36.891Z,3.73
2023-03-07T11:41:28.565Z,7.87
2023-03-07T11:44:23.646Z,4.83
2023-03-07T11:46:57.003Z,4.43
2023-03-07T11:49:46.606Z,5.60
2023-03-07T11:52:50.679Z,3.43
2023-03-07T11:55:24.212Z,5.97
2023-03-07T11:58:12.438Z,5.67
2023-03-07T12:01:13.186Z,6.73
2023-03-07T12:03:55.835Z,4.47
2023-03-07T12:07:03.266Z,6.10
2023-03-07T12:09:36.145Z,4.80
2023-03-07T12:12:28.843Z,3.23
2023-03-07T12:15:03.836Z,4.67
2023-03-07T12:17:43.597Z,4.03
2023-03-07T12:20:16.422Z,3.57
2023-03-07T12:23:01.001Z,4.53
2023-03-07T12:25:33.999Z,6.60
2023-03-07T12:28:03.419Z,4.20
2023-03-07T12:30:35.850Z,3.33
2023-03-07T12:33:03.009Z,2.43
2023-03-07T12:35:35.626Z,3.13
2023-03-07T12:38:13.197Z,5.20
2023-03-07T12:40:49.229Z,3.87
2023-03-07T12:43:21.750Z,5.80
2023-03-07T12:45:52.509Z,6.73
2023-03-07T12:48:24.235Z,2.97
2023-03-07T12:50:53.264Z,1.60
2023-03-07T12:53:22.536Z,3.57
2023-03-07T12:55:56.542Z,8.00
2023-03-07T12:58:32.268Z,4.53
2023-03-07T13:01:02.727Z,5.17
2023-03-07T13:03:43.567Z,3.87
2023-03-07T13:06:16.108Z,6.83
2023-03-07T13:08:45.151Z,3.67
2023-03-07T13:11:32.495Z,3.20
2023-03-07T13:14:03.581Z,1.97
2023-03-07T13:16:45.419Z,2.53
2023-03-07T13:19:30.637Z,6.97
2023-03-07T13:21:58.022Z,5.57
2023-03-07T13:24:39.973Z,4.00
2023-03-07T13:27:21.194Z,2.50
2023-03-07T13:30:12.657Z,3.10
2023-03-07T13:32:50.972Z,4.57
2023-03-07T13:35:46.390Z,4.63
2023-03-07T13:38:46.607Z,4.93
2023-03-07T13:41:13.645Z,5.43
2023-03-07T13:43:46.127Z,3.97
2023-03-07T13:46:24.751Z,1.97
2023-03-07T13:48:54.070Z,3.00
2023-03-07T13:51:20.889Z,4.07
2023-03-07T13:53:52.975Z,4.20
2023-03-07T13:56:28.943Z,3.70
2023-03-07T13:59:24.621Z,4.17
2023-03-07T14:02:07.308Z,5.27
2023-03-07T14:04:46.584Z,3.93
2023-03-07T14:07:32.367Z,4.43
2023-03-07T14:10:21.887Z,3.90
2023-03-07T14:13:11.137Z,6.10
2023-03-07T14:15:51.434Z,3.80
2023-03-07T14:18:45.882Z,4.20
2023-03-07T14:21:31.129Z,3.23
2023-03-07T14:24:12.419Z,11.47
2023-03-07T14:26:41.601Z,6.77
2023-03-07T14:29:22.261Z,4.30
2023-03-07T14:31:50.864Z,4.73
2023-03-07T14:34:21.913Z,5.83
2023-03-07T14:37:00.053Z,6.33
2023-03-07T14:39:40.357Z,3.73
2023-03-07T14:42:28.621Z,3.30
2023-03-07T14:44:55.100Z,4.73
2023-03-07T14:47:42.949Z,4.43
2023-03-07T14:50:12.149Z,3.53
2023-03-07T14:52:38.917Z,7.37
2023-03-07T14:55:06.588Z,5.03
2023-03-07T14:57:36.442Z,3.00
2023-03-07T15:00:12.576Z,7.90
2023-03-07T15:03:00.877Z,4.67
2023-03-07T15:05:33.028Z,4.40
2023-03-07T15:07:59.826Z,4.93
2023-03-07T15:10:40.757Z,5.50
2023-03-07T15:13:13.753Z,3.67
2023-03-07T15:15:45.573Z,5.40
2023-03-07T15:18:29.265Z,4.70
2023-03-07T15:20:56.927Z,6.77
2023-03-07T15:23:27.776Z,4.90
2023-03-07T15:26:01.943Z,8.47
2023-03-07T15:28:32.600Z,10.80
2023-03-07T15:30:59.173Z,5.07
2023-03-07T15:33:27.737Z,5.10
2023-03-07T15:36:12.545Z,6.20
2023-03-07T15:38:49.348Z,4.03
2023-03-07T15:41:29.684Z,5.93
2023-03-07T15:44:12.158Z,5.10
2023-03-07T15:46:59.685Z,5.70
2023-03-07T15:49:35.260Z,7.47
2023-03-07T15:52:01.800Z,6.60
2023-03-07T15:54:28.207Z,4.53
2023-03-07T15:57:00.816Z,5.40
2023-03-07T15:59:33.374Z,5.00
2023-03-07T16:02:46.021Z,6.40
2023-03-07T16:05:24.314Z,2.77
2023-03-07T16:07:52.421Z,6.13
2023-03-07T16:10:19.177Z,5.43
2023-03-07T16:12:46.586Z,3.73
2023-03-07T16:15:22.416Z,4.00
2023-03-07T16:17:53.311Z,2.60
2023-03-07T16:20:22.023Z,3.43
2023-03-07T16:22:48.575Z,5.60
2023-03-07T16:25:15.954Z,3.23
2023-03-07T16:27:57.626Z,4.83
2023-03-07T16:30:28.890Z,7.37
2023-03-07T16:32:55.753Z,5.33
2023-03-07T16:35:28.040Z,6.20
2023-03-07T16:37:55.253Z,5.70
2023-03-07T16:40:22.909Z,3.37
2023-03-07T16:42:52.833Z,3.40
2023-03-07T16:45:21.675Z,5.23
2023-03-07T16:47:51.154Z,5.10
2023-03-07T16:50:20.089Z,7.33
2023-03-07T16:52:46.672Z,5.63
2023-03-07T16:55:14.504Z,5.23
2023-03-07T16:57:45.853Z,5.70
2023-03-07T17:00:20.675Z,7.03
2023-03-07T17:02:47.825Z,5.30
2023-03-07T17:05:16.058Z,6.03
2023-03-07T17:07:42.632Z,4.93
2023-03-07T17:10:10.701Z,4.20
2023-03-07T17:12:37.195Z,5.53
2023-03-07T17:15:03.998Z,5.17
2023-03-07T17:17:33.349Z,3.10
2023-03-07T17:20:00.289Z,6.13
2023-03-07T17:22:26.827Z,5.00
2023-03-07T17:24:53.320Z,3.97
2023-03-07T17:27:20.015Z,6.73
2023-03-07T17:29:52.788Z,4.40
2023-03-07T17:32:19.305Z,5.03
2023-03-07T17:34:46.218Z,6.17
2023-03-07T17:37:12.742Z,4.97
2023-03-07T17:39:40.002Z,5.13
2023-03-07T17:42:06.880Z,4.27
2023-03-07T17:44:33.442Z,4.87
2023-03-07T17:47:00.327Z,5.97
2023-03-07T17:49:33.266Z,6.87
2023-03-07T17:51:59.856Z,5.33
2023-03-07T17:54:26.368Z,3.93
2023-03-07T17:56:52.838Z,6.17
2023-03-07T17:59:19.356Z,5.97
2023-03-07T18:01:45.918Z,5.37
2023-03-07T18:04:12.464Z,6.23
2023-03-07T18:06:40.950Z,12.70
2023-03-07T18:09:07.608Z,8.27
2023-03-07T18:11:34.403Z,5.43
2023-03-07T18:14:01.625Z,8.43
2023-03-07T18:16:28.227Z,6.83
2023-03-07T18:19:00.548Z,6.80
2023-03-07T18:21:30.444Z,4.30
2023-03-07T18:23:57.593Z,4.97
2023-03-07T18:26:24.995Z,8.20
2023-03-07T18:28:54.587Z,8.70
2023-03-07T18:31:28.238Z,7.60
2023-03-07T18:33:55.203Z,6.60
2023-03-07T18:36:23.827Z,7.17
2023-03-07T18:38:50.871Z,6.17
2023-03-07T18:41:20.626Z,6.83
2023-03-07T18:43:47.470Z,8.50
2023-03-07T18:46:18.715Z,7.40
2023-03-07T18:48:45.534Z,7.80
2023-03-07T18:51:14.662Z,10.67
2023-03-07T18:53:41.401Z,17.37
2023-03-07T18:56:10.391Z,9.47
2023-03-07T18:58:36.908Z,6.00
2023-03-07T19:01:12.530Z,4.20
2023-03-07T19:03:39.738Z,9.83
2023-03-07T19:06:07.007Z,6.70
2023-03-07T19:08:33.745Z,8.87
2023-03-07T19:11:05.046Z,10.27
2023-03-07T19:13:32.397Z,10.10
2023-03-07T19:16:06.006Z,8.47
2023-03-07T19:18:33.451Z,9.83
2023-03-07T19:21:00.094Z,7.50
2023-03-07T19:23:26.698Z,7.80
2023-03-07T19:25:53.169Z,7.00
2023-03-07T19:28:19.735Z,6.70
2023-03-07T19:30:46.223Z,7.83
2023-03-07T19:33:12.659Z,8.03
2023-03-07T19:35:39.772Z,9.57
2023-03-07T19:38:06.349Z,9.37
2023-03-07T19:40:32.865Z,11.03
2023-03-07T19:42:59.366Z,8.43
2023-03-07T19:45:27.240Z,13.67
2023-03-07T19:47:54.534Z,13.50
2023-03-07T19:50:21.418Z,12.90
2023-03-07T19:52:47.897Z,14.90
2023-03-07T19:55:14.669Z,13.17
2023-03-07T19:57:41.602Z,13.50
2023-03-07T20:00:08.947Z,10.83
2023-03-07T20:02:35.441Z,5.40
2023-03-07T20:05:02.051Z,6.83
2023-03-07T20:07:29.671Z,6.53
2023-03-07T20:09:56.147Z,5.63
2023-03-07T20:12:22.813Z,5.10
2023-03-07T20:14:49.329Z,5.77
2023-03-07T20:17:15.917Z,6.17
2023-03-07T20:19:42.387Z,5.47
2023-03-07T20:22:08.830Z,4.63
2023-03-07T20:24:36.190Z,4.47
2023-03-07T20:27:02.786Z,4.93
2023-03-07T20:29:29.318Z,4.23
2023-03-07T20:31:55.791Z,3.27
2023-03-07T20:34:25.353Z,4.80
2023-03-07T20:36:52.055Z,3.13
2023-03-07T20:39:18.695Z,2.77
2023-03-07T20:41:45.225Z,5.97
2023-03-07T20:44:14.046Z,8.27
2023-03-07T20:46:41.321Z,8.90
2023-03-07T20:49:08.039Z,6.00
2023-03-07T20:51:36.127Z,5.87
2023-03-07T20:54:04.892Z,4.30
2023-03-07T20:56:33.103Z,4.83
2023-03-07T20:59:00.200Z,5.30
2023-03-07T21:01:29.240Z,2.83
2023-03-07T21:03:56.107Z,5.77
2023-03-07T21:06:22.625Z,3.53
2023-03-07T21:08:49.140Z,3.73
2023-03-07T21:11:20.419Z,3.43
2023-03-07T21:13:48.258Z,5.40
2023-03-07T21:16:20.380Z,6.30
2023-03-07T21:18:47.339Z,6.30
2023-03-07T21:21:16.523Z,5.93
2023-03-07T21:23:43.137Z,5.40
2023-03-07T21:26:18.054Z,3.23
2023-03-07T21:28:44.795Z,5.43
2023-03-07T21:31:16.831Z,4.23
2023-03-07T21:33:45.575Z,4.77
2023-03-07T21:36:14.467Z,8.80
2023-03-07T21:38:41.674Z,6.47
2023-03-07T21:41:08.474Z,8.43
2023-03-07T21:43:34.959Z,11.00
2023-03-07T21:46:06.315Z,4.53
2023-03-07T21:48:33.194Z,5.97
2023-03-07T21:51:01.136Z,7.00
2023-03-07T21:53:27.971Z,5.23
2023-03-07T21:55:57.640Z,7.63
2023-03-07T21:58:24.595Z,9.40
2023-03-07T22:00:51.821Z,7.53
2023-03-07T22:03:18.923Z,5.97
2023-03-07T22:05:45.875Z,6.90
2023-03-07T22:08:12.623Z,5.93
2023-03-07T22:10:39.224Z,4.77
2023-03-07T22:13:06.874Z,4.20
2023-03-07T22:15:33.641Z,6.67
2023-03-07T22:18:00.171Z,6.43
2023-03-07T22:20:26.729Z,6.33
2023-03-07T22:22:53.739Z,8.03
2023-03-07T22:25:20.297Z,6.47
2023-03-07T22:27:46.730Z,12.43
2023-03-07T22:30:13.582Z,8.07
2023-03-07T22:32:40.139Z,7.77
2023-03-07T22:35:07.107Z,5.40
2023-03-07T22:37:33.598Z,6.27
2023-03-07T22:40:00.265Z,4.23
2023-03-07T22:42:26.842Z,6.30
2023-03-07T22:44:54.614Z,5.77
2023-03-07T22:47:21.323Z,4.60
2023-03-07T22:49:48.391Z,4.17
2023-03-07T22:52:14.866Z,6.27
2023-03-07T22:54:43.480Z,5.03
2023-03-07T22:57:09.954Z,4.37
2023-03-07T22:59:36.418Z,6.53
2023-03-07T23:02:02.924Z,4.73
2023-03-07T23:04:30.471Z,5.20
2023-03-07T23:06:57.270Z,5.27
2023-03-07T23:09:23.724Z,5.60
2023-03-07T23:11:50.321Z,5.67
2023-03-07T23:14:16.785Z,7.57
2023-03-07T23:16:43.337Z,7.33
2023-03-07T23:19:09.799Z,9.10
2023-03-07T23:21:37.149Z,11.47
2023-03-07T23:24:04.125Z,12.70
2023-03-07T23:26:36.051Z,8.47
2023-03-07T23:29:04.364Z,8.90
2023-03-07T23:31:33.482Z,6.37
2023-03-07T23:34:01.950Z,7.53
2023-03-07T23:36:30.402Z,4.93
2023-03-07T23:38:57.986Z,6.60
2023-03-07T23:41:24.951Z,4.03
2023-03-07T23:43:54.753Z,4.07
2023-03-07T23:46:21.410Z,7.30
2023-03-07T23:48:47.976Z,6.03
2023-03-07T23:51:15.887Z,4.37
2023-03-07T23:53:42.566Z,4.17
2023-03-07T23:56:10.613Z,3.73
2023-03-07T23:58:37.136Z,2.57
